Weather at Dachlandeplatz 2 Heliport

Public forecast

Using degrees Celsius for public forecast. Weather courtesy of forecast.io.

Closest aviation weather report (METAR) to Dachlandeplatz 2 Heliport

Closest report is Klagenfurt Airport, 2.3 nm (4.2 km) NE.

2024/05/22 16:20 (retrieved 32 minutes ago)

LOWK 221620Z AUTO 09006KT 060V130 9999 FEW070 BKN080 18/10 Q1013 NOSIG

Closest aviation forecast (TAF) to Dachlandeplatz 2 Heliport

Closest forecast is Klagenfurt Airport, 2.3 nm (4.2 km) NE.

2024/05/22 12:24 (retrieved 4 hours ago)

TAF TAF LOWK 221115Z 2212/2312 VRB03KT 9999 SCT030 BKN070 TX20/2212Z TN11/2303Z TEMPO 2212/2218 SHRA FEW020CB BKN030 PROB40 TEMPO 2212/2217 VRB10KT 3000 TSRA TEMPO 2310/2312 09008KT FEW030CB SCT040